Time;durP1;ratioP1;P1;durP2;ratioP2;P2;SDS_P1;SDS_P2;PMS_P1;PMS_P2;Temp;Humidity;BMP_temperature;BMP_pressure;BME280_temperature;BME280_humidity;BME280_pressure;Samples;Min_cycle;Max_cycle;Signal;HPM_P1;HPM_P2
2022/03/16 00:01:09;;;;;;;35.92;14.70;;;;;;;;;;4969273;28;20337;-62
2022/03/16 00:03:35;;;;;;;33.20;13.05;;;;;;;;;;4968349;28;20124;-62
2022/03/16 00:06:00;;;;;;;28.88;14.32;;;;;;;;;;4969178;28;20525;-62
2022/03/16 00:08:28;;;;;;;31.77;13.95;;;;;;;;;;4970630;28;20057;-62
2022/03/16 00:10:54;;;;;;;32.53;14.20;;;;;;;;;;4969409;28;20516;-62
2022/03/16 00:13:19;;;;;;;32.45;13.38;;;;;;;;;;4970093;28;20683;-62
2022/03/16 00:15:45;;;;;;;29.67;14.82;;;;;;;;;;4969183;28;20439;-62
2022/03/16 00:18:12;;;;;;;24.77;11.95;;;;;;;;;;4969082;28;20508;-62
2022/03/16 00:20:37;;;;;;;32.50;14.05;;;;;;;;;;4969572;28;20524;-64
2022/03/16 00:23:02;;;;;;;33.22;14.70;;;;;;;;;;4969723;28;20570;-63
2022/03/16 00:25:28;;;;;;;29.30;12.60;;;;;;;;;;4968997;28;20452;-62
2022/03/16 00:27:53;;;;;;;32.03;12.77;;;;;;;;;;4969298;28;20471;-62
2022/03/16 00:30:18;;;;;;;25.35;12.70;;;;;;;;;;4970535;28;20512;-67
2022/03/16 00:32:44;;;;;;;30.77;12.43;;;;;;;;;;4968984;28;20321;-62
2022/03/16 00:35:09;;;;;;;33.30;13.35;;;;;;;;;;4967684;28;20436;-62
2022/03/16 00:37:34;;;;;;;31.52;13.88;;;;;;;;;;4969261;28;20414;-62
2022/03/16 00:40:00;;;;;;;31.15;12.20;;;;;;;;;;4972026;28;20426;-62
2022/03/16 00:42:25;;;;;;;34.90;14.10;;;;;;;;;;4973536;28;20404;-63
2022/03/16 00:44:50;;;;;;;34.17;13.48;;;;;;;;;;4972878;28;20360;-62
2022/03/16 00:47:16;;;;;;;40.38;15.27;;;;;;;;;;4972767;28;20481;-62
2022/03/16 00:49:42;;;;;;;30.38;14.18;;;;;;;;;;4972303;28;20145;-62
2022/03/16 00:52:07;;;;;;;31.02;12.88;;;;;;;;;;4973012;28;20034;-62
2022/03/16 00:54:33;;;;;;;35.35;14.23;;;;;;;;;;4973595;28;20425;-62
2022/03/16 00:56:58;;;;;;;31.48;12.90;;;;;;;;;;4973904;28;20345;-63
2022/03/16 00:59:23;;;;;;;31.55;12.48;;;;;;;;;;4972287;28;20452;-62
2022/03/16 01:01:49;;;;;;;34.30;13.82;;;;;;;;;;4984275;28;20404;-62
2022/03/16 01:04:14;;;;;;;40.80;14.48;;;;;;;;;;4972785;28;20326;-62
2022/03/16 01:06:39;;;;;;;36.95;14.43;;;;;;;;;;4972759;28;20334;-62
2022/03/16 01:09:05;;;;;;;37.75;14.35;;;;;;;;;;4972707;28;20521;-63
2022/03/16 01:11:32;;;;;;;32.83;13.10;;;;;;;;;;4972494;28;20437;-62
2022/03/16 01:13:57;;;;;;;33.67;13.18;;;;;;;;;;4972200;28;20099;-62
2022/03/16 01:16:22;;;;;;;31.17;14.30;;;;;;;;;;4972442;28;20499;-62
2022/03/16 01:18:48;;;;;;;34.00;14.68;;;;;;;;;;4973037;28;20440;-63
2022/03/16 01:21:13;;;;;;;33.33;14.70;;;;;;;;;;4972441;28;20444;-62
2022/03/16 01:23:39;;;;;;;34.10;13.40;;;;;;;;;;4972974;28;20417;-62
2022/03/16 01:26:04;;;;;;;29.73;12.60;;;;;;;;;;4972953;28;20391;-62
2022/03/16 01:28:30;;;;;;;37.88;14.60;;;;;;;;;;4971871;28;20115;-62
2022/03/16 01:30:55;;;;;;;30.75;13.43;;;;;;;;;;4972019;28;20452;-62
2022/03/16 01:33:20;;;;;;;36.10;14.32;;;;;;;;;;4972094;28;20396;-63
2022/03/16 01:35:46;;;;;;;36.08;13.98;;;;;;;;;;4972003;28;20417;-62
2022/03/16 01:38:11;;;;;;;33.10;13.95;;;;;;;;;;4972069;28;20429;-62
2022/03/16 01:40:36;;;;;;;33.63;13.57;;;;;;;;;;4971886;28;20313;-62
2022/03/16 01:43:02;;;;;;;36.10;14.43;;;;;;;;;;4972051;28;20391;-62
2022/03/16 01:45:27;;;;;;;29.17;12.65;;;;;;;;;;4972043;28;20091;-63
2022/03/16 01:47:52;;;;;;;31.58;13.43;;;;;;;;;;4971291;28;20464;-62
2022/03/16 01:50:18;;;;;;;32.03;13.32;;;;;;;;;;4971190;28;20498;-62
2022/03/16 01:52:43;;;;;;;29.63;12.30;;;;;;;;;;4971724;28;20515;-62
2022/03/16 01:55:09;;;;;;;39.45;13.65;;;;;;;;;;4971626;28;20455;-62
2022/03/16 01:57:35;;;;;;;38.35;14.65;;;;;;;;;;4972169;28;20172;-63
2022/03/16 02:00:06;;;;;;;34.78;12.48;;;;;;;;;;4971191;28;20464;-63
2022/03/16 02:02:32;;;;;;;32.08;14.52;;;;;;;;;;4971806;28;20431;-62
2022/03/16 02:04:57;;;;;;;33.90;13.20;;;;;;;;;;4972303;28;20425;-63
2022/03/16 02:07:23;;;;;;;24.85;13.00;;;;;;;;;;4971849;28;20333;-63
2022/03/16 02:09:49;;;;;;;29.73;13.07;;;;;;;;;;4971269;28;20406;-69
2022/03/16 02:12:14;;;;;;;39.78;14.90;;;;;;;;;;4973291;28;20151;-62
2022/03/16 02:14:40;;;;;;;33.17;13.25;;;;;;;;;;4971082;28;20480;-62
2022/03/16 02:17:05;;;;;;;24.48;11.98;;;;;;;;;;4971951;28;20398;-62
2022/03/16 02:19:32;;;;;;;35.17;11.77;;;;;;;;;;4971480;28;20491;-62
2022/03/16 02:22:01;;;;;;;25.85;11.77;;;;;;;;;;4972585;28;20048;-62
2022/03/16 02:24:27;;;;;;;34.60;12.07;;;;;;;;;;4972231;28;20465;-62
2022/03/16 02:26:52;;;;;;;27.63;12.55;;;;;;;;;;4972086;28;20337;-63
2022/03/16 02:29:18;;;;;;;25.13;11.73;;;;;;;;;;4971167;28;20357;-62
2022/03/16 02:31:43;;;;;;;30.13;12.02;;;;;;;;;;4970768;28;20369;-62
2022/03/16 02:34:08;;;;;;;29.05;12.15;;;;;;;;;;4970905;28;20417;-62
2022/03/16 02:36:33;;;;;;;21.35;10.60;;;;;;;;;;4972217;28;20464;-62
2022/03/16 02:38:59;;;;;;;27.35;12.02;;;;;;;;;;4970692;28;20401;-62
2022/03/16 02:41:24;;;;;;;29.25;11.98;;;;;;;;;;4972533;28;20428;-62
2022/03/16 02:43:50;;;;;;;23.75;10.77;;;;;;;;;;4971872;28;20537;-62
2022/03/16 02:46:15;;;;;;;30.13;11.43;;;;;;;;;;4970832;28;20051;-62
2022/03/16 02:48:40;;;;;;;29.67;12.27;;;;;;;;;;4970249;28;20380;-62
2022/03/16 02:51:06;;;;;;;25.80;10.98;;;;;;;;;;4971440;28;20033;-63
2022/03/16 02:53:31;;;;;;;23.02;10.88;;;;;;;;;;4970647;28;20420;-62
2022/03/16 02:55:56;;;;;;;25.70;10.10;;;;;;;;;;4970624;28;20452;-62
2022/03/16 02:58:22;;;;;;;25.27;11.52;;;;;;;;;;4971110;28;20463;-62
2022/03/16 03:00:47;;;;;;;23.00;10.50;;;;;;;;;;4970385;28;20364;-62
2022/03/16 03:03:12;;;;;;;24.02;10.70;;;;;;;;;;4970497;28;20535;-63
2022/03/16 03:05:38;;;;;;;26.60;11.55;;;;;;;;;;4971541;28;20420;-62
2022/03/16 03:08:04;;;;;;;24.58;10.40;;;;;;;;;;4968503;28;20437;-62
2022/03/16 03:10:29;;;;;;;22.88;11.02;;;;;;;;;;4970160;28;20104;-63
2022/03/16 03:12:54;;;;;;;24.50;10.52;;;;;;;;;;4969949;28;20521;-62
2022/03/16 03:15:20;;;;;;;26.67;11.07;;;;;;;;;;4970304;28;20340;-62
2022/03/16 03:17:46;;;;;;;25.60;9.95;;;;;;;;;;4970097;28;20088;-62
2022/03/16 03:20:12;;;;;;;23.45;10.63;;;;;;;;;;4970000;28;20495;-62
2022/03/16 03:22:38;;;;;;;26.67;11.57;;;;;;;;;;4969903;28;20337;-63
2022/03/16 03:25:05;;;;;;;22.45;10.93;;;;;;;;;;4969812;28;20329;-64
2022/03/16 03:27:32;;;;;;;21.10;10.25;;;;;;;;;;4970037;28;20348;-63
2022/03/16 03:29:57;;;;;;;26.13;11.18;;;;;;;;;;4969928;28;20415;-62
2022/03/16 03:32:23;;;;;;;22.55;10.07;;;;;;;;;;4970197;28;20341;-63
2022/03/16 03:34:51;;;;;;;21.83;9.80;;;;;;;;;;4969983;28;20048;-62
2022/03/16 03:37:18;;;;;;;23.77;9.90;;;;;;;;;;4969757;28;20376;-62
2022/03/16 03:39:43;;;;;;;22.50;10.05;;;;;;;;;;4969244;28;20498;-63
2022/03/16 03:42:09;;;;;;;21.98;9.70;;;;;;;;;;4969739;28;20456;-62
2022/03/16 03:44:38;;;;;;;25.60;10.63;;;;;;;;;;4969707;28;20351;-62
2022/03/16 03:47:07;;;;;;;25.63;10.57;;;;;;;;;;4969217;28;20029;-62
2022/03/16 03:49:34;;;;;;;25.63;9.77;;;;;;;;;;4970048;28;20456;-63
2022/03/16 03:51:59;;;;;;;24.95;11.20;;;;;;;;;;4970538;28;20449;-62
2022/03/16 03:54:24;;;;;;;24.88;10.65;;;;;;;;;;4969643;28;20421;-62
2022/03/16 03:56:50;;;;;;;23.33;10.18;;;;;;;;;;4969485;28;20445;-63
2022/03/16 03:59:15;;;;;;;25.80;10.63;;;;;;;;;;4970185;28;20540;-62
2022/03/16 04:01:40;;;;;;;24.38;10.65;;;;;;;;;;4969533;28;20029;-63
2022/03/16 04:04:07;;;;;;;23.23;9.85;;;;;;;;;;4969337;28;20180;-62
2022/03/16 04:06:33;;;;;;;27.55;11.05;;;;;;;;;;4970781;28;20314;-63
2022/03/16 04:08:58;;;;;;;22.42;9.60;;;;;;;;;;4951344;28;20357;-62
2022/03/16 04:11:23;;;;;;;22.17;9.98;;;;;;;;;;4970070;28;20341;-63
2022/03/16 04:13:49;;;;;;;19.05;9.27;;;;;;;;;;4969428;28;20104;-62
2022/03/16 04:16:14;;;;;;;27.17;10.15;;;;;;;;;;4969703;28;20417;-62
2022/03/16 04:18:39;;;;;;;22.52;9.52;;;;;;;;;;4969045;28;20468;-63
2022/03/16 04:21:05;;;;;;;21.30;9.50;;;;;;;;;;4969297;28;20368;-62
2022/03/16 04:23:30;;;;;;;23.75;9.80;;;;;;;;;;4970782;28;20421;-63
2022/03/16 04:25:55;;;;;;;23.35;9.98;;;;;;;;;;4969249;28;20440;-62
2022/03/16 04:28:21;;;;;;;25.73;10.65;;;;;;;;;;4969350;28;20092;-62
2022/03/16 04:30:46;;;;;;;22.48;10.27;;;;;;;;;;4968741;28;20431;-62
2022/03/16 04:33:11;;;;;;;19.73;10.65;;;;;;;;;;4969537;28;20429;-62
2022/03/16 04:35:36;;;;;;;22.80;10.32;;;;;;;;;;4969347;28;20527;-63
2022/03/16 04:38:02;;;;;;;24.25;10.45;;;;;;;;;;4970555;28;20120;-62
2022/03/16 04:40:27;;;;;;;20.38;9.18;;;;;;;;;;4969242;28;20507;-63
2022/03/16 04:42:52;;;;;;;24.45;10.57;;;;;;;;;;4970150;28;20025;-62
2022/03/16 04:45:18;;;;;;;22.65;9.52;;;;;;;;;;4969028;28;20496;-62
2022/03/16 04:47:43;;;;;;;22.25;9.30;;;;;;;;;;4968687;28;20058;-62
2022/03/16 04:50:09;;;;;;;27.27;10.77;;;;;;;;;;4969530;28;20455;-62
2022/03/16 04:52:42;;;;;;;24.08;9.30;;;;;;;;;;4968843;28;20504;-62
2022/03/16 04:55:07;;;;;;;25.63;9.85;;;;;;;;;;4969095;28;20342;-62
2022/03/16 04:57:33;;;;;;;23.67;10.50;;;;;;;;;;4968624;28;20392;-62
2022/03/16 04:59:58;;;;;;;20.25;9.90;;;;;;;;;;4969057;28;20111;-62
2022/03/16 05:02:23;;;;;;;23.33;10.02;;;;;;;;;;4969573;28;20504;-62
2022/03/16 05:04:48;;;;;;;21.50;9.52;;;;;;;;;;4968865;28;20038;-63
2022/03/16 05:07:14;;;;;;;23.90;9.13;;;;;;;;;;4968460;28;20429;-62
2022/03/16 05:09:40;;;;;;;24.25;10.10;;;;;;;;;;4970586;28;20491;-62
2022/03/16 05:12:06;;;;;;;20.45;9.73;;;;;;;;;;4950441;28;20480;-62
2022/03/16 05:14:31;;;;;;;23.92;9.43;;;;;;;;;;4968976;28;20336;-63
2022/03/16 05:16:56;;;;;;;19.23;8.95;;;;;;;;;;4969949;28;20033;-62
2022/03/16 05:19:23;;;;;;;19.50;8.13;;;;;;;;;;4969011;28;20455;-62
2022/03/16 05:21:48;;;;;;;22.98;9.32;;;;;;;;;;4969724;28;20314;-62
2022/03/16 05:24:14;;;;;;;19.27;8.90;;;;;;;;;;4969102;28;20372;-63
2022/03/16 05:26:39;;;;;;;21.15;9.15;;;;;;;;;;4972148;28;20330;-62
2022/03/16 05:29:05;;;;;;;20.05;8.77;;;;;;;;;;4973534;28;20349;-63
2022/03/16 05:31:31;;;;;;;24.10;9.52;;;;;;;;;;4973442;28;20364;-63
2022/03/16 05:33:56;;;;;;;25.45;9.35;;;;;;;;;;4972593;28;20325;-62
2022/03/16 05:36:21;;;;;;;23.48;9.80;;;;;;;;;;4972101;28;20508;-62
2022/03/16 05:38:46;;;;;;;24.65;9.63;;;;;;;;;;4971860;28;20460;-62
2022/03/16 05:41:14;;;;;;;23.15;9.30;;;;;;;;;;4971967;28;20471;-62
2022/03/16 05:43:40;;;;;;;19.50;9.05;;;;;;;;;;4971540;28;20441;-62
2022/03/16 05:46:05;;;;;;;24.63;9.90;;;;;;;;;;4972177;28;20396;-62
2022/03/16 05:48:30;;;;;;;24.67;9.15;;;;;;;;;;4971502;28;20443;-62
2022/03/16 05:50:56;;;;;;;17.75;8.93;;;;;;;;;;4971541;28;20315;-62
2022/03/16 05:53:21;;;;;;;19.52;8.75;;;;;;;;;;4972792;28;20503;-62
2022/03/16 05:55:47;;;;;;;20.75;8.45;;;;;;;;;;4971507;28;20369;-62
2022/03/16 05:58:12;;;;;;;23.23;9.23;;;;;;;;;;4971188;28;20461;-63
2022/03/16 06:00:40;;;;;;;23.85;8.68;;;;;;;;;;4971647;28;20459;-62
2022/03/16 06:03:06;;;;;;;20.77;8.27;;;;;;;;;;4971778;28;20347;-62
2022/03/16 06:05:31;;;;;;;22.77;9.15;;;;;;;;;;4972012;28;20555;-62
2022/03/16 06:07:56;;;;;;;19.48;8.90;;;;;;;;;;4973051;28;20507;-63
2022/03/16 06:10:22;;;;;;;20.77;9.85;;;;;;;;;;4972935;28;20452;-62
2022/03/16 06:12:56;;;;;;;20.27;9.45;;;;;;;;;;4971280;28;20030;-63
2022/03/16 06:15:24;;;;;;;19.73;9.48;;;;;;;;;;4971464;28;20052;-62
2022/03/16 06:17:49;;;;;;;19.10;9.32;;;;;;;;;;4971461;28;20516;-62
2022/03/16 06:20:14;;;;;;;22.67;8.95;;;;;;;;;;4971238;28;20441;-62
2022/03/16 06:22:40;;;;;;;21.98;10.68;;;;;;;;;;4971262;28;20534;-63
2022/03/16 06:25:05;;;;;;;23.58;10.73;;;;;;;;;;4971496;28;20437;-62
2022/03/16 06:27:31;;;;;;;21.10;10.02;;;;;;;;;;4970925;28;20391;-62
2022/03/16 06:29:56;;;;;;;21.98;8.52;;;;;;;;;;4971455;28;20504;-63
2022/03/16 06:32:21;;;;;;;17.38;8.65;;;;;;;;;;4970941;28;20633;-62
2022/03/16 06:34:47;;;;;;;19.50;8.82;;;;;;;;;;4970943;28;20428;-63
2022/03/16 06:37:12;;;;;;;19.38;9.00;;;;;;;;;;4970108;28;20448;-62
2022/03/16 06:39:38;;;;;;;19.60;8.80;;;;;;;;;;4971189;28;20052;-62
2022/03/16 06:42:03;;;;;;;15.70;8.40;;;;;;;;;;4970478;28;20425;-62
2022/03/16 06:44:28;;;;;;;20.27;9.13;;;;;;;;;;4970652;28;20405;-62
2022/03/16 06:46:54;;;;;;;19.33;8.55;;;;;;;;;;4970524;28;20537;-62
2022/03/16 06:49:19;;;;;;;20.23;8.85;;;;;;;;;;4956721;28;20454;-62
2022/03/16 06:51:44;;;;;;;20.35;8.70;;;;;;;;;;4950866;28;20396;-62
2022/03/16 06:54:10;;;;;;;18.85;9.18;;;;;;;;;;4951268;28;20029;-63
2022/03/16 06:56:35;;;;;;;21.88;9.05;;;;;;;;;;4950598;28;20033;-63
2022/03/16 06:59:00;;;;;;;18.23;9.27;;;;;;;;;;4950963;28;20100;-62
2022/03/16 07:01:26;;;;;;;19.48;9.02;;;;;;;;;;4951875;28;20412;-62
2022/03/16 07:03:51;;;;;;;21.38;9.10;;;;;;;;;;4950972;28;20416;-63
2022/03/16 07:06:16;;;;;;;14.95;8.40;;;;;;;;;;4950310;28;20177;-62
2022/03/16 07:08:42;;;;;;;17.08;8.45;;;;;;;;;;4950743;28;20461;-62
2022/03/16 07:11:07;;;;;;;20.20;8.43;;;;;;;;;;4950634;28;20447;-62
2022/03/16 07:13:33;;;;;;;20.15;8.35;;;;;;;;;;4950393;28;20454;-62
2022/03/16 07:15:58;;;;;;;18.20;8.80;;;;;;;;;;4951152;28;20584;-63
2022/03/16 07:18:23;;;;;;;18.25;10.20;;;;;;;;;;4950578;28;21916;-62
2022/03/16 07:20:49;;;;;;;22.33;9.25;;;;;;;;;;4950667;28;20454;-62
2022/03/16 07:23:15;;;;;;;20.63;9.55;;;;;;;;;;4950897;28;20454;-62
2022/03/16 07:25:43;;;;;;;21.13;8.82;;;;;;;;;;4933271;28;20349;-62
2022/03/16 07:28:09;;;;;;;21.30;9.60;;;;;;;;;;4950685;28;20409;-63
2022/03/16 07:30:36;;;;;;;20.98;10.20;;;;;;;;;;4950243;28;20085;-63
2022/03/16 07:33:02;;;;;;;23.38;10.05;;;;;;;;;;4950721;28;20346;-63
2022/03/16 07:35:27;;;;;;;20.85;9.52;;;;;;;;;;4950406;28;20464;-62
2022/03/16 07:37:57;;;;;;;20.02;10.77;;;;;;;;;;4950561;28;20349;-63
2022/03/16 07:40:23;;;;;;;21.27;9.75;;;;;;;;;;4950401;28;20516;-62
2022/03/16 07:42:49;;;;;;;18.27;9.18;;;;;;;;;;4950035;28;20402;-63
2022/03/16 07:45:15;;;;;;;20.30;9.75;;;;;;;;;;4951386;28;20487;-62
2022/03/16 07:47:42;;;;;;;23.48;10.90;;;;;;;;;;4950722;28;20376;-62
2022/03/16 07:50:08;;;;;;;20.05;9.80;;;;;;;;;;4969564;28;20399;-62
2022/03/16 07:52:33;;;;;;;23.17;9.68;;;;;;;;;;4969877;28;20116;-62
2022/03/16 07:54:59;;;;;;;24.10;11.02;;;;;;;;;;4969519;28;20056;-62
2022/03/16 07:57:25;;;;;;;22.40;10.02;;;;;;;;;;4969369;28;20088;-63
2022/03/16 07:59:51;;;;;;;25.45;10.45;;;;;;;;;;4969456;28;20435;-62
2022/03/16 08:02:16;;;;;;;25.30;10.68;;;;;;;;;;4970489;28;20419;-62
2022/03/16 08:04:42;;;;;;;23.58;10.55;;;;;;;;;;4969261;28;20029;-62
2022/03/16 08:07:09;;;;;;;19.65;8.95;;;;;;;;;;4968522;28;20345;-62
2022/03/16 08:09:35;;;;;;;19.30;9.40;;;;;;;;;;4969300;28;20509;-62
2022/03/16 08:12:00;;;;;;;20.70;10.75;;;;;;;;;;4969896;28;20437;-62
2022/03/16 08:14:26;;;;;;;17.30;8.85;;;;;;;;;;4969119;28;20409;-62
2022/03/16 08:16:51;;;;;;;21.70;10.18;;;;;;;;;;4969275;28;20425;-62
2022/03/16 08:19:17;;;;;;;21.42;10.55;;;;;;;;;;4969385;28;20324;-62
2022/03/16 08:21:43;;;;;;;20.13;9.70;;;;;;;;;;4969278;28;20553;-62
2022/03/16 08:24:08;;;;;;;18.67;9.77;;;;;;;;;;4970523;28;20511;-62
2022/03/16 08:26:34;;;;;;;20.17;10.15;;;;;;;;;;4969803;28;20503;-62
2022/03/16 08:28:59;;;;;;;18.77;9.93;;;;;;;;;;4969123;28;20340;-62
2022/03/16 08:31:25;;;;;;;19.80;10.00;;;;;;;;;;4969279;28;20514;-62
2022/03/16 08:33:50;;;;;;;20.85;10.27;;;;;;;;;;4970482;28;20507;-62
2022/03/16 08:36:15;;;;;;;29.92;10.68;;;;;;;;;;4969377;28;20425;-62
2022/03/16 08:38:41;;;;;;;22.13;10.02;;;;;;;;;;4969333;28;20337;-63
2022/03/16 08:41:07;;;;;;;23.58;9.95;;;;;;;;;;4969778;28;20425;-62
2022/03/16 08:43:33;;;;;;;20.08;9.57;;;;;;;;;;4969961;28;20490;-62
2022/03/16 08:45:59;;;;;;;21.35;10.40;;;;;;;;;;4969155;28;20549;-62
2022/03/16 08:48:25;;;;;;;23.33;10.50;;;;;;;;;;4968048;28;20411;-62
2022/03/16 08:50:50;;;;;;;18.27;9.70;;;;;;;;;;4970294;28;20543;-62
2022/03/16 08:53:16;;;;;;;22.42;10.63;;;;;;;;;;4969503;28;20391;-63
2022/03/16 08:55:41;;;;;;;20.90;10.57;;;;;;;;;;4969433;28;20088;-62
2022/03/16 08:58:06;;;;;;;24.35;10.38;;;;;;;;;;4968792;28;20369;-62
2022/03/16 09:00:32;;;;;;;21.20;10.20;;;;;;;;;;4972692;28;20486;-63
2022/03/16 09:02:58;;;;;;;23.67;11.00;;;;;;;;;;4973325;28;20021;-63
2022/03/16 09:05:23;;;;;;;19.80;8.88;;;;;;;;;;4970506;28;20506;-63
2022/03/16 09:07:48;;;;;;;21.42;10.32;;;;;;;;;;4972276;28;20391;-63
2022/03/16 09:10:14;;;;;;;26.58;10.93;;;;;;;;;;4973179;28;20337;-63
2022/03/16 09:12:40;;;;;;;24.25;9.75;;;;;;;;;;4972527;28;20520;-63
2022/03/16 09:15:06;;;;;;;22.58;10.15;;;;;;;;;;4972235;28;20496;-64
2022/03/16 09:17:33;;;;;;;25.45;10.23;;;;;;;;;;4972552;28;20628;-63
2022/03/16 09:19:58;;;;;;;20.60;9.68;;;;;;;;;;4954326;28;20310;-63
2022/03/16 09:22:24;;;;;;;19.83;9.35;;;;;;;;;;4973297;28;20364;-62
2022/03/16 09:24:49;;;;;;;22.35;9.98;;;;;;;;;;4972438;28;20420;-62
2022/03/16 09:27:16;;;;;;;18.33;8.93;;;;;;;;;;4972317;28;20029;-63
2022/03/16 09:29:46;;;;;;;18.48;9.27;;;;;;;;;;4954795;28;20325;-63
2022/03/16 09:32:11;;;;;;;24.35;9.93;;;;;;;;;;4971995;28;20491;-63
2022/03/16 09:34:38;;;;;;;22.45;9.65;;;;;;;;;;4972140;28;20329;-63
2022/03/16 09:37:04;;;;;;;21.15;9.52;;;;;;;;;;4971670;28;20417;-63
2022/03/16 09:39:30;;;;;;;21.40;10.00;;;;;;;;;;4972160;28;20411;-63
2022/03/16 09:41:56;;;;;;;22.70;10.63;;;;;;;;;;4973213;28;20376;-64
2022/03/16 09:44:27;;;;;;;22.05;9.40;;;;;;;;;;4972016;28;20421;-64
2022/03/16 09:46:54;;;;;;;23.77;9.77;;;;;;;;;;4971700;28;20534;-63
2022/03/16 09:49:19;;;;;;;21.33;10.40;;;;;;;;;;4971687;28;20606;-63
2022/03/16 09:51:44;;;;;;;23.67;9.82;;;;;;;;;;4971508;28;20383;-63
2022/03/16 09:54:10;;;;;;;20.65;9.73;;;;;;;;;;4972445;28;20420;-65
2022/03/16 09:56:36;;;;;;;23.67;10.77;;;;;;;;;;4972233;28;20356;-63
2022/03/16 09:59:01;;;;;;;22.25;9.20;;;;;;;;;;4972703;28;20355;-63
2022/03/16 10:01:27;;;;;;;25.38;9.68;;;;;;;;;;4971341;28;20368;-63
2022/03/16 10:03:54;;;;;;;27.30;10.88;;;;;;;;;;4971640;28;20468;-63
2022/03/16 10:06:24;;;;;;;27.58;10.63;;;;;;;;;;4972328;28;20414;-63
2022/03/16 10:14:17;;;;;;;18.92;9.70;;;;;;;;;;4973197;28;20478;-64
2022/03/16 10:19:49;;;;;;;25.35;9.52;;;;;;;;;;4971536;28;20491;-63
2022/03/16 10:22:26;;;;;;;20.20;9.85;;;;;;;;;;4881453;28;20500;-63
2022/03/16 10:24:57;;;;;;;20.88;9.48;;;;;;;;;;4957146;28;20388;-63
2022/03/16 10:27:23;;;;;;;20.75;9.48;;;;;;;;;;4972146;28;20413;-63
2022/03/16 10:29:50;;;;;;;19.10;10.85;;;;;;;;;;4971866;28;20108;-64
2022/03/16 10:32:16;;;;;;;24.67;10.13;;;;;;;;;;4971096;28;20441;-62
2022/03/16 10:34:54;;;;;;;22.15;10.88;;;;;;;;;;4971350;28;20456;-63
2022/03/16 10:37:23;;;;;;;23.88;10.15;;;;;;;;;;4971827;28;20415;-63
2022/03/16 10:39:50;;;;;;;22.73;10.77;;;;;;;;;;4971660;28;20380;-63
2022/03/16 10:47:56;;;;;;;19.15;8.85;;;;;;;;;;4972995;28;20463;-63
2022/03/16 10:50:22;;;;;;;19.95;9.88;;;;;;;;;;4971959;28;20467;-63
2022/03/16 10:52:48;;;;;;;18.83;9.93;;;;;;;;;;4971453;28;20493;-63
2022/03/16 10:55:13;;;;;;;21.17;10.02;;;;;;;;;;4952912;28;20348;-63
2022/03/16 10:57:40;;;;;;;19.65;9.23;;;;;;;;;;4970727;28;20409;-63
2022/03/16 11:00:06;;;;;;;26.73;9.70;;;;;;;;;;4952505;28;20451;-62
2022/03/16 11:02:34;;;;;;;19.23;9.38;;;;;;;;;;4970772;28;20405;-63
2022/03/16 11:04:59;;;;;;;23.95;10.88;;;;;;;;;;4970460;28;20026;-65
2022/03/16 11:07:25;;;;;;;23.38;10.43;;;;;;;;;;4952620;28;20021;-64
2022/03/16 11:09:51;;;;;;;20.45;9.18;;;;;;;;;;4971025;28;20322;-63
2022/03/16 11:15:01;;;;;;;29.95;10.98;;;;;;;;;;4971423;28;20395;-63
2022/03/16 11:17:27;;;;;;;18.80;9.40;;;;;;;;;;4971021;28;20337;-63
2022/03/16 11:19:56;;;;;;;21.52;10.13;;;;;;;;;;4953626;28;20416;-63
2022/03/16 11:22:27;;;;;;;25.07;10.60;;;;;;;;;;4969868;28;20507;-63
2022/03/16 11:25:00;;;;;;;18.63;9.32;;;;;;;;;;4952265;28;20065;-63
2022/03/16 11:27:34;;;;;;;20.00;9.70;;;;;;;;;;4970155;28;20314;-63
2022/03/16 11:30:08;;;;;;;21.30;8.93;;;;;;;;;;4969806;28;20415;-62
2022/03/16 11:32:42;;;;;;;24.88;9.32;;;;;;;;;;4971614;28;20356;-63
2022/03/16 11:35:10;;;;;;;22.08;8.95;;;;;;;;;;4969739;28;20059;-63
2022/03/16 11:37:46;;;;;;;17.40;8.93;;;;;;;;;;4969824;28;20026;-63
2022/03/16 11:40:16;;;;;;;24.85;8.80;;;;;;;;;;4969784;28;20432;-63
2022/03/16 11:43:04;;;;;;;19.30;9.10;;;;;;;;;;4970013;28;20383;-64
2022/03/16 11:45:43;;;;;;;22.20;9.30;;;;;;;;;;4960288;28;20472;-64
2022/03/16 11:48:33;;;;;;;;;;;;;;;;;;4969790;28;20064;-63
2022/03/16 11:51:13;;;;;;;15.88;8.18;;;;;;;;;;4969714;28;20317;-63
2022/03/16 11:53:58;;;;;;;21.13;8.65;;;;;;;;;;4969546;28;20498;-63
2022/03/16 11:56:24;;;;;;;17.75;8.20;;;;;;;;;;4969932;28;20480;-63
2022/03/16 11:59:19;;;;;;;17.92;8.63;;;;;;;;;;4970233;28;20420;-63
2022/03/16 12:01:52;;;;;;;18.73;9.45;;;;;;;;;;4964291;28;20459;-63
2022/03/16 12:04:34;;;;;;;17.77;9.13;;;;;;;;;;4962273;28;20479;-63
2022/03/16 12:07:08;;;;;;;25.48;8.40;;;;;;;;;;4970395;28;20324;-63
2022/03/16 12:09:52;;;;;;;18.38;8.75;;;;;;;;;;4969521;28;20322;-63
2022/03/16 12:12:54;;;;;;;20.08;8.50;;;;;;;;;;4969618;28;20329;-63
2022/03/16 12:15:37;;;;;;;17.42;8.52;;;;;;;;;;4969740;28;20416;-63
2022/03/16 12:18:12;;;;;;;16.98;7.68;;;;;;;;;;4969421;28;20407;-63
2022/03/16 12:20:41;;;;;;;23.88;9.23;;;;;;;;;;4969582;28;20507;-63
2022/03/16 12:23:14;;;;;;;17.90;8.23;;;;;;;;;;4969314;28;20421;-64
2022/03/16 12:25:41;;;;;;;18.92;8.77;;;;;;;;;;4970697;28;20388;-63
2022/03/16 12:31:10;;;;;;;13.43;7.35;;;;;;;;;;4969187;28;20532;-63
2022/03/16 12:33:43;;;;;;;15.50;7.85;;;;;;;;;;4969486;28;20302;-63
2022/03/16 12:36:13;;;;;;;14.68;7.38;;;;;;;;;;4973948;28;20345;-64
2022/03/16 12:38:41;;;;;;;17.83;7.80;;;;;;;;;;4973794;28;20336;-63
2022/03/16 12:43:56;;;;;;;11.88;7.18;;;;;;;;;;4973850;28;20352;-63
2022/03/16 12:46:28;;;;;;;17.00;7.65;;;;;;;;;;4972994;28;20429;-62
2022/03/16 12:48:59;;;;;;;16.02;7.65;;;;;;;;;;4972320;28;20471;-63
2022/03/16 12:51:36;;;;;;;19.02;8.30;;;;;;;;;;4973014;28;20325;-63
2022/03/16 12:54:02;;;;;;;14.95;7.70;;;;;;;;;;4973662;28;20056;-63
2022/03/16 12:56:27;;;;;;;17.55;7.75;;;;;;;;;;4955070;28;20030;-63
2022/03/16 12:58:54;;;;;;;14.55;6.57;;;;;;;;;;4972794;28;20500;-63
2022/03/16 13:01:20;;;;;;;14.88;7.40;;;;;;;;;;4972526;28;20534;-63
2022/03/16 13:03:45;;;;;;;17.67;7.90;;;;;;;;;;4983374;28;20310;-63
2022/03/16 13:06:18;;;;;;;16.65;7.40;;;;;;;;;;4973140;28;20313;-63
2022/03/16 13:08:50;;;;;;;15.05;8.02;;;;;;;;;;4973580;28;20467;-62
2022/03/16 13:11:28;;;;;;;14.40;6.82;;;;;;;;;;4972865;28;20598;-63
2022/03/16 13:14:06;;;;;;;17.58;7.40;;;;;;;;;;4972691;28;20428;-63
2022/03/16 13:16:38;;;;;;;13.95;7.00;;;;;;;;;;4972643;28;20518;-63
2022/03/16 13:19:06;;;;;;;16.35;7.97;;;;;;;;;;4972997;28;20376;-62
2022/03/16 13:21:33;;;;;;;11.73;7.22;;;;;;;;;;4972417;28;20444;-63
2022/03/16 13:24:10;;;;;;;17.08;6.63;;;;;;;;;;4972202;28;20451;-62
2022/03/16 13:26:38;;;;;;;15.30;6.82;;;;;;;;;;4972497;28;20535;-63
2022/03/16 13:29:09;;;;;;;14.40;8.93;;;;;;;;;;4972151;28;20051;-63
2022/03/16 13:31:41;;;;;;;19.40;12.50;;;;;;;;;;4954885;28;20397;-63
2022/03/16 13:34:08;;;;;;;17.63;9.82;;;;;;;;;;4955468;28;20498;-62
2022/03/16 13:36:41;;;;;;;12.77;7.03;;;;;;;;;;4972007;28;20337;-63
2022/03/16 13:39:25;;;;;;;16.20;7.10;;;;;;;;;;4973138;28;20637;-62
2022/03/16 13:42:12;;;;;;;12.55;7.05;;;;;;;;;;4971814;28;20491;-63
2022/03/16 13:44:40;;;;;;;15.95;6.90;;;;;;;;;;4954804;28;20372;-63
2022/03/16 13:47:11;;;;;;;13.40;6.90;;;;;;;;;;4972229;28;20412;-63
2022/03/16 13:49:37;;;;;;;14.00;7.35;;;;;;;;;;4972564;28;20453;-62
2022/03/16 13:52:08;;;;;;;13.85;7.78;;;;;;;;;;4971872;28;20441;-63
2022/03/16 13:54:34;;;;;;;12.85;6.82;;;;;;;;;;4972276;28;20499;-62
2022/03/16 13:57:11;;;;;;;15.40;6.82;;;;;;;;;;4972283;28;20345;-63
2022/03/16 13:59:37;;;;;;;13.00;6.78;;;;;;;;;;4971609;28;20428;-62
2022/03/16 14:02:13;;;;;;;15.60;6.80;;;;;;;;;;4971981;28;20494;-64
2022/03/16 14:04:42;;;;;;;12.65;6.28;;;;;;;;;;4972897;28;20336;-63
2022/03/16 14:07:23;;;;;;;14.55;6.97;;;;;;;;;;4972832;28;20429;-63
2022/03/16 14:09:53;;;;;;;13.27;6.03;;;;;;;;;;4972148;28;20045;-62
2022/03/16 14:12:19;;;;;;;12.25;6.30;;;;;;;;;;4971686;28;20484;-63
2022/03/16 14:14:46;;;;;;;15.35;8.18;;;;;;;;;;4970876;28;20424;-62
2022/03/16 14:17:12;;;;;;;12.40;6.90;;;;;;;;;;4971560;28;20425;-63
2022/03/16 14:19:38;;;;;;;13.45;7.85;;;;;;;;;;4971906;28;20458;-62
2022/03/16 14:22:07;;;;;;;18.35;8.75;;;;;;;;;;4970823;28;20030;-62
2022/03/16 14:24:34;;;;;;;15.52;7.35;;;;;;;;;;4970979;28;20371;-62
2022/03/16 14:27:15;;;;;;;13.60;6.68;;;;;;;;;;4970978;28;20444;-62
2022/03/16 14:29:47;;;;;;;16.52;7.78;;;;;;;;;;4971405;28;20057;-63
2022/03/16 14:32:13;;;;;;;17.98;8.35;;;;;;;;;;4971500;28;20353;-62
2022/03/16 14:34:40;;;;;;;17.95;8.70;;;;;;;;;;4971714;28;20301;-64
2022/03/16 14:37:05;;;;;;;19.77;8.02;;;;;;;;;;4970467;28;20033;-63
2022/03/16 14:39:31;;;;;;;17.52;7.85;;;;;;;;;;4970777;28;20420;-62
2022/03/16 14:41:56;;;;;;;20.80;8.20;;;;;;;;;;4953374;28;20476;-63
2022/03/16 14:44:21;;;;;;;21.05;9.88;;;;;;;;;;4970855;28;20387;-63
2022/03/16 14:46:47;;;;;;;19.75;8.68;;;;;;;;;;4970652;28;20056;-62